sensor_id;sensor_type;location;lat;lon;timestamp;P1;durP1;ratioP1;P2;durP2;ratioP2
54897;SDS011;40800;52.704;6.398;2023-06-22T00:00:27;38.78;;;35.90;;
54897;SDS011;40800;52.704;6.398;2023-06-22T00:02:52;38.03;;;35.28;;
54897;SDS011;40800;52.704;6.398;2023-06-22T00:05:18;39.35;;;36.42;;
54897;SDS011;40800;52.704;6.398;2023-06-22T00:07:43;39.45;;;36.30;;
54897;SDS011;40800;52.704;6.398;2023-06-22T00:10:09;35.33;;;32.72;;
54897;SDS011;40800;52.704;6.398;2023-06-22T00:12:35;35.15;;;32.63;;
54897;SDS011;40800;52.704;6.398;2023-06-22T00:15:00;35.00;;;32.40;;
54897;SDS011;40800;52.704;6.398;2023-06-22T00:17:26;34.08;;;31.70;;
54897;SDS011;40800;52.704;6.398;2023-06-22T00:19:52;34.55;;;31.95;;
54897;SDS011;40800;52.704;6.398;2023-06-22T00:22:18;36.50;;;33.90;;
54897;SDS011;40800;52.704;6.398;2023-06-22T00:24:53;36.78;;;34.17;;
54897;SDS011;40800;52.704;6.398;2023-06-22T00:27:19;36.50;;;33.88;;
54897;SDS011;40800;52.704;6.398;2023-06-22T00:29:45;37.63;;;34.97;;
54897;SDS011;40800;52.704;6.398;2023-06-22T00:32:10;38.30;;;35.63;;
54897;SDS011;40800;52.704;6.398;2023-06-22T00:34:36;38.35;;;35.65;;
54897;SDS011;40800;52.704;6.398;2023-06-22T00:37:01;37.08;;;34.47;;
54897;SDS011;40800;52.704;6.398;2023-06-22T00:39:27;34.25;;;31.95;;
54897;SDS011;40800;52.704;6.398;2023-06-22T00:41:52;37.55;;;34.95;;
54897;SDS011;40800;52.704;6.398;2023-06-22T00:44:18;38.10;;;35.58;;
54897;SDS011;40800;52.704;6.398;2023-06-22T00:46:44;38.58;;;36.08;;
54897;SDS011;40800;52.704;6.398;2023-06-22T00:49:09;40.40;;;37.50;;
54897;SDS011;40800;52.704;6.398;2023-06-22T00:51:35;39.40;;;36.60;;
54897;SDS011;40800;52.704;6.398;2023-06-22T00:54:03;42.75;;;39.42;;
54897;SDS011;40800;52.704;6.398;2023-06-22T00:58:57;41.47;;;38.47;;
54897;SDS011;40800;52.704;6.398;2023-06-22T01:01:24;40.50;;;37.60;;
54897;SDS011;40800;52.704;6.398;2023-06-22T01:03:50;37.33;;;34.75;;
54897;SDS011;40800;52.704;6.398;2023-06-22T01:06:18;39.20;;;36.47;;
54897;SDS011;40800;52.704;6.398;2023-06-22T01:08:53;42.33;;;39.22;;
54897;SDS011;40800;52.704;6.398;2023-06-22T01:11:45;40.58;;;37.50;;
54897;SDS011;40800;52.704;6.398;2023-06-22T01:14:35;38.20;;;35.45;;
54897;SDS011;40800;52.704;6.398;2023-06-22T01:17:18;41.03;;;38.13;;
54897;SDS011;40800;52.704;6.398;2023-06-22T01:19:45;41.78;;;38.78;;
54897;SDS011;40800;52.704;6.398;2023-06-22T01:22:19;43.75;;;40.40;;
54897;SDS011;40800;52.704;6.398;2023-06-22T01:30:06;44.40;;;41.03;;
54897;SDS011;40800;52.704;6.398;2023-06-22T01:32:35;45.17;;;41.88;;
54897;SDS011;40800;52.704;6.398;2023-06-22T01:35:03;48.20;;;44.30;;
54897;SDS011;40800;52.704;6.398;2023-06-22T01:37:32;53.35;;;49.15;;
54897;SDS011;40800;52.704;6.398;2023-06-22T01:39:59;52.35;;;48.10;;
54897;SDS011;40800;52.704;6.398;2023-06-22T01:42:26;50.30;;;46.30;;
54897;SDS011;40800;52.704;6.398;2023-06-22T01:44:52;53.03;;;48.77;;
54897;SDS011;40800;52.704;6.398;2023-06-22T01:47:19;54.90;;;50.42;;
54897;SDS011;40800;52.704;6.398;2023-06-22T01:49:46;54.20;;;49.90;;
54897;SDS011;40800;52.704;6.398;2023-06-22T01:52:12;58.30;;;53.45;;
54897;SDS011;40800;52.704;6.398;2023-06-22T01:54:39;61.92;;;56.95;;
54897;SDS011;40800;52.704;6.398;2023-06-22T01:57:05;63.47;;;58.08;;
54897;SDS011;40800;52.704;6.398;2023-06-22T02:02:04;52.00;;;48.00;;
54897;SDS011;40800;52.704;6.398;2023-06-22T02:07:05;61.42;;;55.10;;
54897;SDS011;40800;52.704;6.398;2023-06-22T02:09:37;106.40;;;59.35;;
54897;SDS011;40800;52.704;6.398;2023-06-22T02:12:07;65.95;;;59.25;;
54897;SDS011;40800;52.704;6.398;2023-06-22T02:14:35;69.55;;;61.10;;
54897;SDS011;40800;52.704;6.398;2023-06-22T02:17:02;63.85;;;57.75;;
54897;SDS011;40800;52.704;6.398;2023-06-22T02:19:32;71.13;;;64.38;;
54897;SDS011;40800;52.704;6.398;2023-06-22T02:22:01;70.47;;;63.42;;
54897;SDS011;40800;52.704;6.398;2023-06-22T02:24:26;70.53;;;63.28;;
54897;SDS011;40800;52.704;6.398;2023-06-22T02:26:55;70.35;;;63.95;;
54897;SDS011;40800;52.704;6.398;2023-06-22T02:29:25;72.63;;;65.10;;
54897;SDS011;40800;52.704;6.398;2023-06-22T02:31:52;70.53;;;63.13;;
54897;SDS011;40800;52.704;6.398;2023-06-22T02:34:18;66.18;;;60.20;;
54897;SDS011;40800;52.704;6.398;2023-06-22T02:36:47;70.35;;;64.15;;
54897;SDS011;40800;52.704;6.398;2023-06-22T02:39:23;69.95;;;63.33;;
54897;SDS011;40800;52.704;6.398;2023-06-22T02:41:49;71.50;;;65.30;;
54897;SDS011;40800;52.704;6.398;2023-06-22T02:44:16;72.45;;;65.85;;
54897;SDS011;40800;52.704;6.398;2023-06-22T02:46:42;71.07;;;65.17;;
54897;SDS011;40800;52.704;6.398;2023-06-22T02:49:08;63.95;;;58.92;;
54897;SDS011;40800;52.704;6.398;2023-06-22T02:51:33;68.00;;;62.35;;
54897;SDS011;40800;52.704;6.398;2023-06-22T02:53:59;68.90;;;62.90;;
54897;SDS011;40800;52.704;6.398;2023-06-22T02:56:25;67.10;;;61.50;;
54897;SDS011;40800;52.704;6.398;2023-06-22T02:58:51;68.38;;;62.55;;
54897;SDS011;40800;52.704;6.398;2023-06-22T03:01:17;70.70;;;64.65;;
54897;SDS011;40800;52.704;6.398;2023-06-22T03:03:49;67.50;;;62.05;;
54897;SDS011;40800;52.704;6.398;2023-06-22T03:06:15;76.10;;;69.50;;
54897;SDS011;40800;52.704;6.398;2023-06-22T03:08:40;75.78;;;68.60;;
54897;SDS011;40800;52.704;6.398;2023-06-22T03:11:06;66.82;;;61.33;;
54897;SDS011;40800;52.704;6.398;2023-06-22T03:13:33;68.57;;;62.77;;
54897;SDS011;40800;52.704;6.398;2023-06-22T03:15:58;69.65;;;63.65;;
54897;SDS011;40800;52.704;6.398;2023-06-22T03:18:24;70.15;;;64.22;;
54897;SDS011;40800;52.704;6.398;2023-06-22T03:20:50;67.75;;;61.92;;
54897;SDS011;40800;52.704;6.398;2023-06-22T03:23:15;69.45;;;63.67;;
54897;SDS011;40800;52.704;6.398;2023-06-22T03:25:42;68.75;;;62.88;;
54897;SDS011;40800;52.704;6.398;2023-06-22T03:28:09;71.60;;;65.53;;
54897;SDS011;40800;52.704;6.398;2023-06-22T03:30:35;76.25;;;70.07;;
54897;SDS011;40800;52.704;6.398;2023-06-22T03:33:01;69.57;;;63.15;;
54897;SDS011;40800;52.704;6.398;2023-06-22T03:35:27;72.45;;;66.30;;
54897;SDS011;40800;52.704;6.398;2023-06-22T03:37:52;72.25;;;66.22;;
54897;SDS011;40800;52.704;6.398;2023-06-22T03:40:18;70.80;;;65.15;;
54897;SDS011;40800;52.704;6.398;2023-06-22T03:42:44;71.60;;;65.78;;
54897;SDS011;40800;52.704;6.398;2023-06-22T03:45:10;106.93;;;99.83;;
54897;SDS011;40800;52.704;6.398;2023-06-22T03:47:36;75.07;;;68.65;;
54897;SDS011;40800;52.704;6.398;2023-06-22T03:50:02;73.95;;;68.03;;
54897;SDS011;40800;52.704;6.398;2023-06-22T03:52:28;73.40;;;67.30;;
54897;SDS011;40800;52.704;6.398;2023-06-22T03:54:55;78.28;;;71.80;;
54897;SDS011;40800;52.704;6.398;2023-06-22T03:57:20;69.53;;;64.05;;
54897;SDS011;40800;52.704;6.398;2023-06-22T03:59:46;76.88;;;70.28;;
54897;SDS011;40800;52.704;6.398;2023-06-22T04:02:11;77.90;;;70.97;;
54897;SDS011;40800;52.704;6.398;2023-06-22T04:04:37;80.57;;;73.60;;
54897;SDS011;40800;52.704;6.398;2023-06-22T04:07:04;78.80;;;71.18;;
54897;SDS011;40800;52.704;6.398;2023-06-22T04:09:30;80.57;;;73.65;;
54897;SDS011;40800;52.704;6.398;2023-06-22T04:11:55;80.55;;;73.35;;
54897;SDS011;40800;52.704;6.398;2023-06-22T04:14:21;82.20;;;74.80;;
54897;SDS011;40800;52.704;6.398;2023-06-22T04:16:46;81.45;;;74.20;;
54897;SDS011;40800;52.704;6.398;2023-06-22T04:19:12;79.97;;;72.80;;
54897;SDS011;40800;52.704;6.398;2023-06-22T04:21:42;83.20;;;76.03;;
54897;SDS011;40800;52.704;6.398;2023-06-22T04:24:09;83.03;;;75.65;;
54897;SDS011;40800;52.704;6.398;2023-06-22T04:26:35;81.82;;;75.07;;
54897;SDS011;40800;52.704;6.398;2023-06-22T04:29:02;84.07;;;76.90;;
54897;SDS011;40800;52.704;6.398;2023-06-22T04:31:30;85.40;;;78.03;;
54897;SDS011;40800;52.704;6.398;2023-06-22T04:34:01;87.85;;;80.18;;
54897;SDS011;40800;52.704;6.398;2023-06-22T04:36:38;85.20;;;77.47;;
54897;SDS011;40800;52.704;6.398;2023-06-22T04:39:09;86.05;;;78.13;;
54897;SDS011;40800;52.704;6.398;2023-06-22T04:41:36;85.75;;;78.22;;
54897;SDS011;40800;52.704;6.398;2023-06-22T04:44:14;83.50;;;76.05;;
54897;SDS011;40800;52.704;6.398;2023-06-22T04:46:54;89.38;;;81.35;;
54897;SDS011;40800;52.704;6.398;2023-06-22T04:49:28;82.18;;;75.18;;
54897;SDS011;40800;52.704;6.398;2023-06-22T04:52:04;84.28;;;77.15;;
54897;SDS011;40800;52.704;6.398;2023-06-22T04:54:34;85.63;;;78.22;;
54897;SDS011;40800;52.704;6.398;2023-06-22T04:57:02;86.55;;;79.25;;
54897;SDS011;40800;52.704;6.398;2023-06-22T04:59:29;86.82;;;79.53;;
54897;SDS011;40800;52.704;6.398;2023-06-22T05:01:56;89.93;;;82.30;;
54897;SDS011;40800;52.704;6.398;2023-06-22T05:04:25;89.32;;;81.72;;
54897;SDS011;40800;52.704;6.398;2023-06-22T05:06:56;90.38;;;82.63;;
54897;SDS011;40800;52.704;6.398;2023-06-22T05:09:23;89.35;;;81.57;;
54897;SDS011;40800;52.704;6.398;2023-06-22T05:11:50;89.45;;;82.13;;
54897;SDS011;40800;52.704;6.398;2023-06-22T05:14:16;89.50;;;81.73;;
54897;SDS011;40800;52.704;6.398;2023-06-22T05:16:41;89.40;;;81.82;;
54897;SDS011;40800;52.704;6.398;2023-06-22T05:19:07;87.80;;;80.43;;
54897;SDS011;40800;52.704;6.398;2023-06-22T05:21:33;89.65;;;82.13;;
54897;SDS011;40800;52.704;6.398;2023-06-22T05:23:59;88.18;;;80.78;;
54897;SDS011;40800;52.704;6.398;2023-06-22T05:26:27;90.22;;;82.60;;
54897;SDS011;40800;52.704;6.398;2023-06-22T05:28:57;90.70;;;83.15;;
54897;SDS011;40800;52.704;6.398;2023-06-22T05:31:23;90.73;;;83.13;;
54897;SDS011;40800;52.704;6.398;2023-06-22T05:33:51;90.15;;;82.55;;
54897;SDS011;40800;52.704;6.398;2023-06-22T05:36:17;90.18;;;82.38;;
54897;SDS011;40800;52.704;6.398;2023-06-22T05:38:46;89.15;;;81.65;;
54897;SDS011;40800;52.704;6.398;2023-06-22T05:41:12;92.05;;;84.43;;
54897;SDS011;40800;52.704;6.398;2023-06-22T05:43:38;92.85;;;84.85;;
54897;SDS011;40800;52.704;6.398;2023-06-22T05:46:04;89.82;;;82.07;;
54897;SDS011;40800;52.704;6.398;2023-06-22T05:48:30;89.68;;;81.97;;
54897;SDS011;40800;52.704;6.398;2023-06-22T05:50:56;88.63;;;81.28;;
54897;SDS011;40800;52.704;6.398;2023-06-22T05:53:22;87.72;;;80.45;;
54897;SDS011;40800;52.704;6.398;2023-06-22T05:55:48;86.68;;;79.32;;
54897;SDS011;40800;52.704;6.398;2023-06-22T05:58:13;86.22;;;79.13;;
54897;SDS011;40800;52.704;6.398;2023-06-22T06:00:39;85.47;;;78.43;;
54897;SDS011;40800;52.704;6.398;2023-06-22T06:03:09;85.45;;;78.35;;
54897;SDS011;40800;52.704;6.398;2023-06-22T06:05:35;81.53;;;74.95;;
54897;SDS011;40800;52.704;6.398;2023-06-22T06:08:02;79.73;;;73.53;;
54897;SDS011;40800;52.704;6.398;2023-06-22T06:10:30;79.50;;;72.88;;
54897;SDS011;40800;52.704;6.398;2023-06-22T06:12:56;78.45;;;72.25;;
54897;SDS011;40800;52.704;6.398;2023-06-22T06:15:21;77.90;;;71.85;;
54897;SDS011;40800;52.704;6.398;2023-06-22T06:17:48;77.13;;;70.93;;
54897;SDS011;40800;52.704;6.398;2023-06-22T06:20:15;75.40;;;69.00;;
54897;SDS011;40800;52.704;6.398;2023-06-22T06:22:41;77.15;;;70.63;;
54897;SDS011;40800;52.704;6.398;2023-06-22T06:25:07;74.97;;;69.00;;
54897;SDS011;40800;52.704;6.398;2023-06-22T06:27:33;74.75;;;68.20;;
54897;SDS011;40800;52.704;6.398;2023-06-22T06:29:59;72.82;;;66.80;;
54897;SDS011;40800;52.704;6.398;2023-06-22T06:32:25;69.20;;;63.38;;
54897;SDS011;40800;52.704;6.398;2023-06-22T06:34:50;66.25;;;61.15;;
54897;SDS011;40800;52.704;6.398;2023-06-22T06:37:16;67.68;;;62.15;;
54897;SDS011;40800;52.704;6.398;2023-06-22T06:39:43;64.22;;;59.50;;
54897;SDS011;40800;52.704;6.398;2023-06-22T06:42:09;63.65;;;58.83;;
54897;SDS011;40800;52.704;6.398;2023-06-22T06:44:36;60.45;;;55.85;;
54897;SDS011;40800;52.704;6.398;2023-06-22T06:47:03;58.22;;;53.95;;
54897;SDS011;40800;52.704;6.398;2023-06-22T06:49:29;58.67;;;54.35;;
54897;SDS011;40800;52.704;6.398;2023-06-22T06:51:54;58.95;;;54.45;;
54897;SDS011;40800;52.704;6.398;2023-06-22T06:54:21;59.15;;;54.33;;
54897;SDS011;40800;52.704;6.398;2023-06-22T06:56:47;54.83;;;50.63;;
54897;SDS011;40800;52.704;6.398;2023-06-22T06:59:13;55.22;;;50.92;;
54897;SDS011;40800;52.704;6.398;2023-06-22T07:01:40;52.05;;;48.13;;
54897;SDS011;40800;52.704;6.398;2023-06-22T07:04:06;52.00;;;48.22;;
54897;SDS011;40800;52.704;6.398;2023-06-22T07:06:32;52.83;;;48.83;;
54897;SDS011;40800;52.704;6.398;2023-06-22T07:08:58;51.63;;;47.60;;
54897;SDS011;40800;52.704;6.398;2023-06-22T07:11:24;50.90;;;46.90;;
54897;SDS011;40800;52.704;6.398;2023-06-22T07:13:50;47.78;;;44.25;;
54897;SDS011;40800;52.704;6.398;2023-06-22T07:16:16;47.13;;;43.47;;
54897;SDS011;40800;52.704;6.398;2023-06-22T07:18:41;45.80;;;42.38;;
54897;SDS011;40800;52.704;6.398;2023-06-22T07:21:07;45.63;;;42.03;;
54897;SDS011;40800;52.704;6.398;2023-06-22T07:23:33;42.22;;;38.80;;
54897;SDS011;40800;52.704;6.398;2023-06-22T07:25:58;38.10;;;35.30;;
54897;SDS011;40800;52.704;6.398;2023-06-22T07:28:27;35.20;;;32.28;;
54897;SDS011;40800;52.704;6.398;2023-06-22T07:30:56;32.67;;;30.13;;
54897;SDS011;40800;52.704;6.398;2023-06-22T07:33:22;31.17;;;28.77;;
54897;SDS011;40800;52.704;6.398;2023-06-22T07:35:47;30.80;;;28.40;;
54897;SDS011;40800;52.704;6.398;2023-06-22T07:38:13;33.13;;;30.50;;
54897;SDS011;40800;52.704;6.398;2023-06-22T07:40:40;31.98;;;29.40;;
54897;SDS011;40800;52.704;6.398;2023-06-22T07:43:06;32.40;;;29.83;;
54897;SDS011;40800;52.704;6.398;2023-06-22T07:45:32;31.95;;;29.10;;
54897;SDS011;40800;52.704;6.398;2023-06-22T07:48:00;29.70;;;27.20;;
54897;SDS011;40800;52.704;6.398;2023-06-22T07:50:26;28.05;;;25.70;;
54897;SDS011;40800;52.704;6.398;2023-06-22T07:52:51;26.33;;;24.00;;
54897;SDS011;40800;52.704;6.398;2023-06-22T07:55:17;27.23;;;25.03;;
54897;SDS011;40800;52.704;6.398;2023-06-22T07:57:43;26.57;;;24.47;;
54897;SDS011;40800;52.704;6.398;2023-06-22T08:00:11;27.08;;;24.77;;
54897;SDS011;40800;52.704;6.398;2023-06-22T08:02:41;24.30;;;22.27;;
54897;SDS011;40800;52.704;6.398;2023-06-22T08:05:08;24.30;;;22.27;;
54897;SDS011;40800;52.704;6.398;2023-06-22T08:07:35;24.10;;;22.02;;
54897;SDS011;40800;52.704;6.398;2023-06-22T08:10:02;23.60;;;21.48;;
54897;SDS011;40800;52.704;6.398;2023-06-22T08:12:28;22.65;;;20.75;;
54897;SDS011;40800;52.704;6.398;2023-06-22T08:14:54;21.77;;;19.77;;
54897;SDS011;40800;52.704;6.398;2023-06-22T08:17:19;21.57;;;19.77;;
54897;SDS011;40800;52.704;6.398;2023-06-22T08:19:45;20.67;;;18.83;;
54897;SDS011;40800;52.704;6.398;2023-06-22T08:22:10;20.73;;;18.93;;
54897;SDS011;40800;52.704;6.398;2023-06-22T08:24:36;19.50;;;17.80;;
54897;SDS011;40800;52.704;6.398;2023-06-22T08:27:02;18.77;;;17.07;;
54897;SDS011;40800;52.704;6.398;2023-06-22T08:29:27;18.03;;;16.53;;
54897;SDS011;40800;52.704;6.398;2023-06-22T08:31:53;17.90;;;16.40;;
54897;SDS011;40800;52.704;6.398;2023-06-22T08:34:19;17.20;;;15.70;;
54897;SDS011;40800;52.704;6.398;2023-06-22T08:36:47;16.05;;;14.50;;
54897;SDS011;40800;52.704;6.398;2023-06-22T08:39:16;12.93;;;11.65;;
54897;SDS011;40800;52.704;6.398;2023-06-22T08:41:42;12.75;;;11.35;;
54897;SDS011;40800;52.704;6.398;2023-06-22T08:44:08;12.93;;;11.10;;
54897;SDS011;40800;52.704;6.398;2023-06-22T08:46:33;14.57;;;11.00;;
54897;SDS011;40800;52.704;6.398;2023-06-22T08:48:59;16.07;;;11.13;;
54897;SDS011;40800;52.704;6.398;2023-06-22T08:51:25;12.87;;;10.57;;
54897;SDS011;40800;52.704;6.398;2023-06-22T08:53:50;11.87;;;10.67;;
54897;SDS011;40800;52.704;6.398;2023-06-22T08:56:16;14.17;;;10.30;;
54897;SDS011;40800;52.704;6.398;2023-06-22T08:58:41;20.83;;;10.20;;
54897;SDS011;40800;52.704;6.398;2023-06-22T09:01:07;13.47;;;10.47;;
54897;SDS011;40800;52.704;6.398;2023-06-22T09:03:33;11.70;;;10.10;;
54897;SDS011;40800;52.704;6.398;2023-06-22T09:06:01;11.48;;;10.05;;
54897;SDS011;40800;52.704;6.398;2023-06-22T09:08:26;11.03;;;9.90;;
54897;SDS011;40800;52.704;6.398;2023-06-22T09:10:52;10.83;;;9.57;;
54897;SDS011;40800;52.704;6.398;2023-06-22T09:13:18;11.60;;;9.40;;
54897;SDS011;40800;52.704;6.398;2023-06-22T09:15:43;10.83;;;9.50;;
54897;SDS011;40800;52.704;6.398;2023-06-22T09:18:12;11.77;;;9.57;;
54897;SDS011;40800;52.704;6.398;2023-06-22T09:20:38;10.10;;;8.95;;
54897;SDS011;40800;52.704;6.398;2023-06-22T09:23:04;10.57;;;9.47;;
54897;SDS011;40800;52.704;6.398;2023-06-22T09:25:30;9.87;;;8.80;;
54897;SDS011;40800;52.704;6.398;2023-06-22T09:27:55;10.67;;;8.70;;
54897;SDS011;40800;52.704;6.398;2023-06-22T09:30:21;10.70;;;8.20;;
54897;SDS011;40800;52.704;6.398;2023-06-22T09:32:47;11.63;;;8.80;;
54897;SDS011;40800;52.704;6.398;2023-06-22T09:35:13;10.23;;;9.03;;
54897;SDS011;40800;52.704;6.398;2023-06-22T09:37:39;12.60;;;8.20;;
54897;SDS011;40800;52.704;6.398;2023-06-22T09:40:05;10.25;;;8.65;;
54897;SDS011;40800;52.704;6.398;2023-06-22T09:42:36;11.55;;;9.32;;
54897;SDS011;40800;52.704;6.398;2023-06-22T09:45:02;11.70;;;8.95;;
54897;SDS011;40800;52.704;6.398;2023-06-22T09:47:28;11.47;;;8.67;;
54897;SDS011;40800;52.704;6.398;2023-06-22T09:49:54;9.68;;;8.20;;
54897;SDS011;40800;52.704;6.398;2023-06-22T09:52:20;10.88;;;8.27;;
54897;SDS011;40800;52.704;6.398;2023-06-22T09:54:46;9.63;;;8.30;;
54897;SDS011;40800;52.704;6.398;2023-06-22T09:57:12;10.93;;;9.27;;
54897;SDS011;40800;52.704;6.398;2023-06-22T09:59:38;10.97;;;8.70;;
54897;SDS011;40800;52.704;6.398;2023-06-22T10:02:07;10.60;;;8.80;;
54897;SDS011;40800;52.704;6.398;2023-06-22T10:04:33;9.85;;;8.80;;
54897;SDS011;40800;52.704;6.398;2023-06-22T10:07:00;11.07;;;8.95;;
54897;SDS011;40800;52.704;6.398;2023-06-22T10:09:26;11.13;;;8.90;;
54897;SDS011;40800;52.704;6.398;2023-06-22T10:11:52;9.50;;;8.37;;
54897;SDS011;40800;52.704;6.398;2023-06-22T10:14:17;8.83;;;7.93;;
54897;SDS011;40800;52.704;6.398;2023-06-22T10:16:43;11.07;;;7.90;;
54897;SDS011;40800;52.704;6.398;2023-06-22T10:19:09;10.67;;;8.23;;
54897;SDS011;40800;52.704;6.398;2023-06-22T10:21:34;9.23;;;8.03;;
54897;SDS011;40800;52.704;6.398;2023-06-22T10:24:00;9.90;;;8.90;;
54897;SDS011;40800;52.704;6.398;2023-06-22T10:26:31;9.55;;;8.23;;
54897;SDS011;40800;52.704;6.398;2023-06-22T10:28:58;8.55;;;7.70;;
54897;SDS011;40800;52.704;6.398;2023-06-22T10:31:23;8.52;;;7.60;;
54897;SDS011;40800;52.704;6.398;2023-06-22T10:33:49;9.60;;;8.10;;
54897;SDS011;40800;52.704;6.398;2023-06-22T10:36:15;8.37;;;7.13;;
54897;SDS011;40800;52.704;6.398;2023-06-22T10:38:40;9.80;;;7.90;;
54897;SDS011;40800;52.704;6.398;2023-06-22T10:41:06;10.23;;;7.93;;
54897;SDS011;40800;52.704;6.398;2023-06-22T10:43:31;9.03;;;8.13;;
54897;SDS011;40800;52.704;6.398;2023-06-22T10:45:57;8.70;;;7.80;;
54897;SDS011;40800;52.704;6.398;2023-06-22T10:48:23;11.17;;;8.83;;
54897;SDS011;40800;52.704;6.398;2023-06-22T10:50:49;10.40;;;8.27;;
54897;SDS011;40800;52.704;6.398;2023-06-22T10:53:14;9.33;;;8.17;;
54897;SDS011;40800;52.704;6.398;2023-06-22T10:55:40;10.27;;;8.37;;
54897;SDS011;40800;52.704;6.398;2023-06-22T10:58:05;8.70;;;7.67;;
54897;SDS011;40800;52.704;6.398;2023-06-22T11:00:31;9.13;;;7.17;;
54897;SDS011;40800;52.704;6.398;2023-06-22T11:02:56;8.33;;;7.47;;
54897;SDS011;40800;52.704;6.398;2023-06-22T11:05:23;10.25;;;8.27;;
54897;SDS011;40800;52.704;6.398;2023-06-22T11:07:49;9.10;;;8.20;;
54897;SDS011;40800;52.704;6.398;2023-06-22T11:10:14;9.73;;;8.07;;
54897;SDS011;40800;52.704;6.398;2023-06-22T11:12:40;8.27;;;7.37;;
54897;SDS011;40800;52.704;6.398;2023-06-22T11:15:07;9.10;;;7.78;;
54897;SDS011;40800;52.704;6.398;2023-06-22T11:17:33;9.40;;;8.35;;
54897;SDS011;40800;52.704;6.398;2023-06-22T11:19:59;9.00;;;8.03;;
54897;SDS011;40800;52.704;6.398;2023-06-22T11:22:25;9.13;;;6.83;;
54897;SDS011;40800;52.704;6.398;2023-06-22T11:24:51;9.48;;;8.50;;
54897;SDS011;40800;52.704;6.398;2023-06-22T11:27:17;9.03;;;7.00;;
54897;SDS011;40800;52.704;6.398;2023-06-22T11:29:42;10.20;;;7.80;;
54897;SDS011;40800;52.704;6.398;2023-06-22T11:32:08;8.50;;;6.70;;
54897;SDS011;40800;52.704;6.398;2023-06-22T11:34:34;9.27;;;7.67;;
54897;SDS011;40800;52.704;6.398;2023-06-22T11:37:00;11.00;;;8.90;;
54897;SDS011;40800;52.704;6.398;2023-06-22T11:39:25;9.80;;;8.23;;
54897;SDS011;40800;52.704;6.398;2023-06-22T11:41:51;11.27;;;8.30;;
54897;SDS011;40800;52.704;6.398;2023-06-22T11:44:16;8.43;;;7.53;;
54897;SDS011;40800;52.704;6.398;2023-06-22T11:46:42;7.53;;;6.83;;
54897;SDS011;40800;52.704;6.398;2023-06-22T11:49:08;7.97;;;7.13;;
54897;SDS011;40800;52.704;6.398;2023-06-22T11:51:33;10.20;;;7.83;;
54897;SDS011;40800;52.704;6.398;2023-06-22T11:53:59;10.30;;;9.10;;
54897;SDS011;40800;52.704;6.398;2023-06-22T11:56:24;9.07;;;7.87;;
54897;SDS011;40800;52.704;6.398;2023-06-22T11:58:50;10.17;;;9.17;;
54897;SDS011;40800;52.704;6.398;2023-06-22T12:01:16;10.10;;;8.90;;
54897;SDS011;40800;52.704;6.398;2023-06-22T12:03:41;9.17;;;8.07;;
54897;SDS011;40800;52.704;6.398;2023-06-22T12:06:09;7.72;;;6.90;;
54897;SDS011;40800;52.704;6.398;2023-06-22T12:08:35;7.68;;;6.57;;
54897;SDS011;40800;52.704;6.398;2023-06-22T12:11:00;8.17;;;6.73;;
54897;SDS011;40800;52.704;6.398;2023-06-22T12:13:26;9.60;;;7.70;;
54897;SDS011;40800;52.704;6.398;2023-06-22T12:15:51;8.63;;;7.80;;
54897;SDS011;40800;52.704;6.398;2023-06-22T12:18:17;8.77;;;7.87;;
54897;SDS011;40800;52.704;6.398;2023-06-22T12:20:45;34.78;;;9.45;;
54897;SDS011;40800;52.704;6.398;2023-06-22T12:23:11;22.37;;;8.43;;
54897;SDS011;40800;52.704;6.398;2023-06-22T12:25:37;14.67;;;8.60;;
54897;SDS011;40800;52.704;6.398;2023-06-22T12:28:02;8.00;;;6.90;;
54897;SDS011;40800;52.704;6.398;2023-06-22T12:30:29;36.38;;;9.98;;
54897;SDS011;40800;52.704;6.398;2023-06-22T12:32:55;12.45;;;7.00;;
54897;SDS011;40800;52.704;6.398;2023-06-22T12:35:21;12.87;;;8.07;;
54897;SDS011;40800;52.704;6.398;2023-06-22T12:37:46;10.97;;;7.33;;
54897;SDS011;40800;52.704;6.398;2023-06-22T12:40:12;12.90;;;7.43;;
54897;SDS011;40800;52.704;6.398;2023-06-22T12:42:38;11.57;;;8.03;;
54897;SDS011;40800;52.704;6.398;2023-06-22T12:45:04;20.30;;;9.53;;
54897;SDS011;40800;52.704;6.398;2023-06-22T12:47:30;9.27;;;7.90;;
54897;SDS011;40800;52.704;6.398;2023-06-22T12:49:55;9.93;;;7.30;;
54897;SDS011;40800;52.704;6.398;2023-06-22T12:52:21;14.20;;;8.23;;
54897;SDS011;40800;52.704;6.398;2023-06-22T12:54:47;28.17;;;8.83;;
54897;SDS011;40800;52.704;6.398;2023-06-22T12:59:39;17.77;;;8.68;;
54897;SDS011;40800;52.704;6.398;2023-06-22T13:02:05;15.87;;;8.00;;
54897;SDS011;40800;52.704;6.398;2023-06-22T13:04:30;18.25;;;8.38;;
54897;SDS011;40800;52.704;6.398;2023-06-22T13:06:56;12.83;;;8.00;;
54897;SDS011;40800;52.704;6.398;2023-06-22T13:09:22;16.07;;;9.47;;
54897;SDS011;40800;52.704;6.398;2023-06-22T13:11:47;10.10;;;8.43;;
54897;SDS011;40800;52.704;6.398;2023-06-22T13:14:13;10.43;;;8.43;;
54897;SDS011;40800;52.704;6.398;2023-06-22T13:16:41;11.27;;;8.45;;
54897;SDS011;40800;52.704;6.398;2023-06-22T13:19:07;10.97;;;9.00;;
54897;SDS011;40800;52.704;6.398;2023-06-22T13:21:32;11.17;;;8.77;;
54897;SDS011;40800;52.704;6.398;2023-06-22T13:23:59;11.80;;;7.85;;
54897;SDS011;40800;52.704;6.398;2023-06-22T13:26:24;10.77;;;7.40;;
54897;SDS011;40800;52.704;6.398;2023-06-22T13:28:50;10.37;;;7.67;;
54897;SDS011;40800;52.704;6.398;2023-06-22T13:31:16;8.97;;;7.40;;
54897;SDS011;40800;52.704;6.398;2023-06-22T13:33:41;10.00;;;7.67;;
54897;SDS011;40800;52.704;6.398;2023-06-22T13:36:07;15.47;;;6.93;;
54897;SDS011;40800;52.704;6.398;2023-06-22T13:41:03;15.45;;;8.02;;
54897;SDS011;40800;52.704;6.398;2023-06-22T13:43:29;12.73;;;7.00;;
54897;SDS011;40800;52.704;6.398;2023-06-22T13:45:55;16.17;;;7.97;;
54897;SDS011;40800;52.704;6.398;2023-06-22T13:48:20;15.20;;;7.77;;
54897;SDS011;40800;52.704;6.398;2023-06-22T13:50:48;9.73;;;8.18;;
54897;SDS011;40800;52.704;6.398;2023-06-22T13:53:13;12.70;;;8.33;;
54897;SDS011;40800;52.704;6.398;2023-06-22T13:55:39;15.97;;;8.13;;
54897;SDS011;40800;52.704;6.398;2023-06-22T13:58:06;10.35;;;7.53;;
54897;SDS011;40800;52.704;6.398;2023-06-22T14:00:31;19.87;;;9.03;;
54897;SDS011;40800;52.704;6.398;2023-06-22T14:02:57;11.03;;;8.10;;
54897;SDS011;40800;52.704;6.398;2023-06-22T14:05:23;10.47;;;7.80;;
54897;SDS011;40800;52.704;6.398;2023-06-22T14:07:48;14.13;;;7.30;;
54897;SDS011;40800;52.704;6.398;2023-06-22T14:10:14;9.03;;;6.93;;
54897;SDS011;40800;52.704;6.398;2023-06-22T14:12:40;10.43;;;6.90;;
54897;SDS011;40800;52.704;6.398;2023-06-22T14:15:05;7.53;;;6.30;;
54897;SDS011;40800;52.704;6.398;2023-06-22T14:17:31;15.57;;;7.80;;
54897;SDS011;40800;52.704;6.398;2023-06-22T14:19:57;10.53;;;7.53;;
54897;SDS011;40800;52.704;6.398;2023-06-22T14:22:22;10.47;;;7.27;;
54897;SDS011;40800;52.704;6.398;2023-06-22T14:24:48;7.47;;;6.70;;
54897;SDS011;40800;52.704;6.398;2023-06-22T14:27:14;8.77;;;7.18;;
54897;SDS011;40800;52.704;6.398;2023-06-22T14:29:40;10.02;;;7.45;;
54897;SDS011;40800;52.704;6.398;2023-06-22T14:32:06;8.00;;;6.77;;
54897;SDS011;40800;52.704;6.398;2023-06-22T14:34:33;12.55;;;7.85;;
54897;SDS011;40800;52.704;6.398;2023-06-22T14:37:01;15.45;;;8.20;;
54897;SDS011;40800;52.704;6.398;2023-06-22T14:39:27;21.90;;;8.63;;
54897;SDS011;40800;52.704;6.398;2023-06-22T14:41:53;15.90;;;8.73;;